createdAt,value
2022-08-26T00:03:40.029Z,25.83
2022-08-26T00:07:42.280Z,25.78
2022-08-26T00:11:45.659Z,25.71
2022-08-26T00:15:47.367Z,25.64
2022-08-26T00:19:49.015Z,25.59
2022-08-26T00:23:52.613Z,25.45
2022-08-26T00:27:54.282Z,25.39
2022-08-26T00:31:58.159Z,25.35
2022-08-26T00:35:59.933Z,25.31
2022-08-26T00:40:05.354Z,25.29
2022-08-26T00:44:10.294Z,25.22
2022-08-26T00:48:13.410Z,25.19
2022-08-26T00:52:18.890Z,25.14
2022-08-26T00:56:36.371Z,25.09
2022-08-26T01:00:37.972Z,25.08
2022-08-26T01:04:40.184Z,25.04
2022-08-26T01:08:44.695Z,24.99
2022-08-26T01:12:53.416Z,24.94
2022-08-26T01:16:54.956Z,24.79
2022-08-26T01:21:18.065Z,24.67
2022-08-26T01:25:21.699Z,24.23
2022-08-26T01:29:25.039Z,24.23
2022-08-26T01:33:42.088Z,24.34
2022-08-26T01:37:45.322Z,24.41
2022-08-26T01:41:47.546Z,24.45
2022-08-26T01:45:56.902Z,24.44
2022-08-26T01:50:01.196Z,24.37
2022-08-26T01:54:07.172Z,24.24
2022-08-26T01:58:21.188Z,24.31
2022-08-26T02:02:23.514Z,24.36
2022-08-26T02:06:26.340Z,24.39
2022-08-26T02:10:29.129Z,24.41
2022-08-26T02:14:34.608Z,24.37
2022-08-26T02:18:40.184Z,24.34
2022-08-26T02:22:42.864Z,24.30
2022-08-26T02:26:47.948Z,24.29
2022-08-26T02:30:50.011Z,24.26
2022-08-26T02:34:52.451Z,24.18
2022-08-26T02:38:54.007Z,24.16
2022-08-26T02:42:57.369Z,24.14
2022-08-26T02:46:59.611Z,23.96
2022-08-26T02:51:01.969Z,23.72
2022-08-26T02:55:04.836Z,23.49
2022-08-26T02:59:06.513Z,23.37
2022-08-26T03:03:08.958Z,23.34
2022-08-26T03:07:10.707Z,23.38
2022-08-26T03:11:12.438Z,23.50
2022-08-26T03:15:17.834Z,23.59
2022-08-26T03:19:21.409Z,23.63
2022-08-26T03:23:25.133Z,23.63
2022-08-26T03:27:26.715Z,23.62
2022-08-26T03:31:29.829Z,23.57
2022-08-26T03:35:33.030Z,23.59
2022-08-26T03:39:34.876Z,23.56
2022-08-26T03:43:36.532Z,23.52
2022-08-26T03:47:40.183Z,23.52
2022-08-26T03:51:42.164Z,23.49
2022-08-26T03:55:43.790Z,23.47
2022-08-26T03:59:45.619Z,23.44
2022-08-26T04:04:00.332Z,23.39
2022-08-26T04:08:02.752Z,23.38
2022-08-26T04:12:04.781Z,23.35
2022-08-26T04:16:06.801Z,23.35
2022-08-26T04:20:09.468Z,23.31
2022-08-26T04:24:13.252Z,23.32
2022-08-26T04:28:15.018Z,23.34
2022-08-26T04:32:16.869Z,23.31
2022-08-26T04:36:19.908Z,23.35
2022-08-26T04:40:22.305Z,23.37
2022-08-26T04:44:27.369Z,23.41
2022-08-26T04:48:30.598Z,23.45
2022-08-26T04:52:32.183Z,23.38
2022-08-26T04:56:37.190Z,23.39
2022-08-26T05:00:38.829Z,23.39
2022-08-26T05:04:43.576Z,23.39
2022-08-26T05:08:45.261Z,23.42
2022-08-26T05:12:46.946Z,23.42
2022-08-26T05:16:51.725Z,23.42
2022-08-26T05:20:54.647Z,23.44
2022-08-26T05:24:56.503Z,23.49
2022-08-26T05:28:58.564Z,23.52
2022-08-26T05:33:00.735Z,23.56
2022-08-26T05:37:02.378Z,23.54
2022-08-26T05:41:04.817Z,23.57
2022-08-26T05:45:07.214Z,23.60
2022-08-26T05:49:12.599Z,23.57
2022-08-26T05:53:17.611Z,23.50
2022-08-26T05:57:19.289Z,23.45
2022-08-26T06:01:27.621Z,23.52
2022-08-26T06:05:29.295Z,23.54
2022-08-26T06:09:30.985Z,23.54
2022-08-26T06:13:34.278Z,23.74
2022-08-26T06:17:36.770Z,23.57
2022-08-26T06:21:41.599Z,23.60
2022-08-26T06:25:43.455Z,23.63
2022-08-26T06:29:45.016Z,23.68
2022-08-26T06:33:47.636Z,23.74
2022-08-26T06:37:49.458Z,23.82
2022-08-26T06:41:51.968Z,23.94
2022-08-26T06:46:04.848Z,23.97
2022-08-26T06:50:07.023Z,24.09
2022-08-26T06:54:10.113Z,24.18
2022-08-26T06:58:13.664Z,24.27
2022-08-26T07:02:15.379Z,24.39
2022-08-26T07:06:19.917Z,24.48
2022-08-26T07:10:21.466Z,24.59
2022-08-26T07:14:25.236Z,24.67
2022-08-26T07:18:27.924Z,24.83
2022-08-26T07:22:29.505Z,24.92
2022-08-26T07:26:32.111Z,25.09
2022-08-26T07:30:39.051Z,25.27
2022-08-26T07:34:43.221Z,25.41
2022-08-26T07:38:45.814Z,25.42
2022-08-26T07:42:47.573Z,25.59
2022-08-26T07:46:53.248Z,25.89
2022-08-26T07:50:55.530Z,26.11
2022-08-26T07:54:59.516Z,26.28
2022-08-26T07:59:01.618Z,26.50
2022-08-26T08:03:05.711Z,26.68
2022-08-26T08:07:07.524Z,26.71
2022-08-26T08:11:13.182Z,26.69
2022-08-26T08:15:15.913Z,26.66
2022-08-26T08:19:18.044Z,26.69
2022-08-26T08:23:19.711Z,26.65
2022-08-26T08:27:24.061Z,26.60
2022-08-26T08:31:57.016Z,26.53
2022-08-26T08:35:52.763Z,26.51
2022-08-26T08:39:54.360Z,26.54
2022-08-26T08:43:56.763Z,26.66
2022-08-26T08:48:02.551Z,26.83
2022-08-26T08:52:16.749Z,26.96
2022-08-26T08:56:32.104Z,27.08
2022-08-26T09:00:42.500Z,27.23
2022-08-26T09:05:00.424Z,27.33
2022-08-26T09:09:03.333Z,27.38
2022-08-26T09:13:09.816Z,27.33
2022-08-26T09:17:41.234Z,27.28
2022-08-26T09:21:42.879Z,27.25
2022-08-26T09:29:59.406Z,27.34
2022-08-26T09:34:06.904Z,27.45
2022-08-26T09:38:22.866Z,27.52
2022-08-26T09:42:28.351Z,27.49
2022-08-26T09:46:31.807Z,27.42
2022-08-26T09:50:50.100Z,27.31
2022-08-26T09:55:12.378Z,27.23
2022-08-26T09:59:14.790Z,27.15
2022-08-26T10:03:31.324Z,27.12
2022-08-26T10:07:49.909Z,27.05
2022-08-26T10:12:04.573Z,27.02
2022-08-26T10:16:16.236Z,26.93
2022-08-26T10:20:25.944Z,26.84
2022-08-26T10:24:55.407Z,26.83
2022-08-26T10:29:08.811Z,26.79
2022-08-26T10:33:15.317Z,26.84
2022-08-26T10:37:23.404Z,26.91
2022-08-26T10:41:27.856Z,27.15
2022-08-26T10:45:35.272Z,27.43
2022-08-26T10:49:38.218Z,27.48
2022-08-26T10:53:56.563Z,27.52
2022-08-26T10:57:58.151Z,27.53
2022-08-26T11:02:03.954Z,27.55
2022-08-26T11:06:20.006Z,27.76
2022-08-26T11:10:21.576Z,28.13
2022-08-26T11:14:28.953Z,28.46
2022-08-26T11:18:40.399Z,28.70
2022-08-26T11:22:48.016Z,28.92
2022-08-26T11:26:55.946Z,29.17
2022-08-26T11:30:58.453Z,29.37
2022-08-26T11:35:06.687Z,29.58
2022-08-26T11:39:33.448Z,29.78
2022-08-26T11:43:40.520Z,29.94
2022-08-26T11:47:42.139Z,30.10
2022-08-26T11:51:47.751Z,30.30
2022-08-26T11:55:52.508Z,30.49
2022-08-26T11:59:56.519Z,30.66
2022-08-26T12:03:59.803Z,30.78
2022-08-26T12:08:11.480Z,30.97
2022-08-26T12:12:16.373Z,31.12
2022-08-26T12:16:23.901Z,31.27
2022-08-26T12:20:46.368Z,31.42
2022-08-26T12:24:52.187Z,31.57
2022-08-26T12:29:00.939Z,31.72
2022-08-26T12:33:22.349Z,31.92
2022-08-26T12:37:35.468Z,32.09
2022-08-26T12:41:39.739Z,32.13
2022-08-26T12:45:56.831Z,32.16
2022-08-26T12:50:03.436Z,32.24
2022-08-26T12:54:06.738Z,32.29
2022-08-26T12:58:31.591Z,32.47
2022-08-26T13:02:39.898Z,32.85
2022-08-26T13:06:41.464Z,33.11
2022-08-26T13:10:46.769Z,33.20
2022-08-26T13:14:48.305Z,33.22
2022-08-26T13:18:53.122Z,33.28
2022-08-26T13:22:58.861Z,33.59
2022-08-26T13:27:01.514Z,33.71
2022-08-26T13:31:04.627Z,33.84
2022-08-26T13:35:07.597Z,33.89
2022-08-26T13:39:09.150Z,33.59
2022-08-26T13:43:11.727Z,33.50
2022-08-26T13:47:14.931Z,33.21
2022-08-26T13:51:18.543Z,32.88
2022-08-26T13:55:20.168Z,32.63
2022-08-26T13:59:21.750Z,32.47
2022-08-26T14:03:24.640Z,32.36
2022-08-26T14:07:26.598Z,32.29
2022-08-26T14:11:29.953Z,32.44
2022-08-26T14:15:47.030Z,32.50
2022-08-26T14:19:50.314Z,32.35
2022-08-26T14:23:52.492Z,32.49
2022-08-26T14:27:54.140Z,32.69
2022-08-26T14:31:56.974Z,32.87
2022-08-26T14:36:19.701Z,33.14
2022-08-26T14:40:23.050Z,33.29
2022-08-26T14:44:31.165Z,33.60
2022-08-26T14:48:32.685Z,33.68
2022-08-26T14:52:54.257Z,33.53
2022-08-26T14:56:59.524Z,33.53
2022-08-26T15:01:04.183Z,33.65
2022-08-26T15:05:08.443Z,33.86
2022-08-26T15:09:10.245Z,34.00
2022-08-26T15:13:12.109Z,33.90
2022-08-26T15:17:13.740Z,33.45
2022-08-26T15:21:15.373Z,32.96
2022-08-26T15:25:17.977Z,32.21
2022-08-26T15:29:20.461Z,31.87
2022-08-26T15:33:22.098Z,31.46
2022-08-26T15:37:23.803Z,31.03
2022-08-26T15:41:25.962Z,31.09
2022-08-26T15:45:28.044Z,31.28
2022-08-26T15:49:30.776Z,31.32
2022-08-26T15:53:34.491Z,30.94
2022-08-26T15:57:36.142Z,30.53
2022-08-26T16:01:38.423Z,30.53
2022-08-26T16:05:43.442Z,30.42
2022-08-26T16:09:45.412Z,30.34
2022-08-26T16:13:53.736Z,30.53
2022-08-26T16:17:59.278Z,30.61
2022-08-26T16:22:00.896Z,30.22
2022-08-26T16:26:15.103Z,29.82
2022-08-26T16:30:16.714Z,29.12
2022-08-26T16:34:18.264Z,28.76
2022-08-26T16:38:19.855Z,28.45
2022-08-26T16:42:21.470Z,28.36
2022-08-26T16:46:26.812Z,28.28
2022-08-26T16:50:28.434Z,28.01
2022-08-26T16:54:30.308Z,27.83
2022-08-26T16:58:31.877Z,27.69
2022-08-26T17:02:33.543Z,27.59
2022-08-26T17:06:35.312Z,27.50
2022-08-26T17:10:37.442Z,27.38
2022-08-26T17:14:39.237Z,27.25
2022-08-26T17:18:40.988Z,27.24
2022-08-26T17:22:45.396Z,27.20
2022-08-26T17:26:47.820Z,27.18
2022-08-26T17:30:52.509Z,27.18
2022-08-26T17:34:54.388Z,27.18
2022-08-26T17:38:57.277Z,27.16
2022-08-26T17:42:59.237Z,27.16
2022-08-26T17:47:01.078Z,27.13
2022-08-26T17:51:11.014Z,27.13
2022-08-26T17:55:15.601Z,27.11
2022-08-26T17:59:18.460Z,27.02
2022-08-26T18:03:20.140Z,26.98
2022-08-26T18:07:21.705Z,27.01
2022-08-26T18:11:24.388Z,27.02
2022-08-26T18:15:26.036Z,26.98
2022-08-26T18:19:27.771Z,26.94
2022-08-26T18:23:31.337Z,26.91
2022-08-26T18:27:36.651Z,26.86
2022-08-26T18:31:38.376Z,26.76
2022-08-26T18:35:42.580Z,26.64
2022-08-26T18:39:44.172Z,26.51
2022-08-26T18:43:45.862Z,26.44
2022-08-26T18:47:47.528Z,26.42
2022-08-26T18:51:51.080Z,26.41
2022-08-26T18:55:52.680Z,26.35
2022-08-26T18:59:54.327Z,26.31
2022-08-26T19:03:57.643Z,26.28
2022-08-26T19:07:59.229Z,26.19
2022-08-26T19:12:01.552Z,26.11
2022-08-26T19:16:04.164Z,26.01
2022-08-26T19:20:09.013Z,25.96
2022-08-26T19:24:15.519Z,25.89
2022-08-26T19:28:19.565Z,25.90
2022-08-26T19:32:24.165Z,25.74
2022-08-26T19:36:27.353Z,25.67
2022-08-26T19:40:29.350Z,25.71
2022-08-26T19:44:49.603Z,25.69
2022-08-26T19:48:54.112Z,25.63
2022-08-26T19:52:58.008Z,25.61
2022-08-26T19:57:00.054Z,25.60
2022-08-26T20:01:01.717Z,25.56
2022-08-26T20:05:05.876Z,25.59
2022-08-26T20:09:07.476Z,25.60
2022-08-26T20:13:09.032Z,25.59
2022-08-26T20:17:11.582Z,25.54
2022-08-26T20:21:29.295Z,25.53
2022-08-26T20:25:32.526Z,25.53
2022-08-26T20:29:34.715Z,25.49
2022-08-26T20:33:39.856Z,25.45
2022-08-26T20:37:47.876Z,25.36
2022-08-26T20:41:49.868Z,25.31
2022-08-26T20:45:51.503Z,25.38
2022-08-26T20:49:53.165Z,25.17
2022-08-26T20:53:55.148Z,25.11
2022-08-26T20:57:56.925Z,25.05
2022-08-26T21:02:00.344Z,24.98
2022-08-26T21:06:03.508Z,24.92
2022-08-26T21:10:05.640Z,24.90
2022-08-26T21:14:16.063Z,24.84
2022-08-26T21:18:18.751Z,24.86
2022-08-26T21:22:20.623Z,24.84
2022-08-26T21:26:22.785Z,24.77
2022-08-26T21:30:24.415Z,24.64
2022-08-26T21:34:26.780Z,24.45
2022-08-26T21:38:30.858Z,24.33
2022-08-26T21:42:34.261Z,24.24
2022-08-26T21:46:37.271Z,24.11
2022-08-26T21:50:39.005Z,24.08
2022-08-26T21:54:40.613Z,24.05
2022-08-26T21:58:52.497Z,24.04
2022-08-26T22:02:54.379Z,23.97
2022-08-26T22:06:57.562Z,23.90
2022-08-26T22:11:00.886Z,23.82
2022-08-26T22:15:02.772Z,23.87
2022-08-26T22:19:04.564Z,23.87
2022-08-26T22:23:06.632Z,23.93
2022-08-26T22:27:08.266Z,23.97
2022-08-26T22:31:11.981Z,23.92
2022-08-26T22:35:29.046Z,23.92
2022-08-26T22:39:31.278Z,23.92
2022-08-26T22:43:32.936Z,23.90
2022-08-26T22:47:34.940Z,23.84
2022-08-26T22:51:39.156Z,23.89
2022-08-26T22:55:40.810Z,23.92
2022-08-26T22:59:42.568Z,23.96
2022-08-26T23:03:45.167Z,23.96
2022-08-26T23:07:46.894Z,23.92
2022-08-26T23:11:48.765Z,23.84
2022-08-26T23:16:00.358Z,23.75
2022-08-26T23:20:03.574Z,23.74
2022-08-26T23:24:06.968Z,23.71
2022-08-26T23:28:08.698Z,23.67
2022-08-26T23:32:10.790Z,23.52
2022-08-26T23:36:17.046Z,23.47
2022-08-26T23:40:32.212Z,23.42
2022-08-26T23:44:34.865Z,23.37
2022-08-26T23:48:36.818Z,23.29
2022-08-26T23:52:57.049Z,23.22
2022-08-26T23:56:58.936Z,23.21
